Huron Regional Airport
KHON : rendu visible

Aérodrome :











RETROUVEZ-NOUS SUR...

 
LOGIN :

S'inscrire | Disclaimer

   EN    FR    IT 

 









Légende :    VFR   VFR Marginal   IFR   IFR Intensif   IFR Très Intensif
Visi : 
Plafond : 
>= 8 km
>= 3000ft
5 à 8 km
1000 à 3000 ft
1500m à 5 km
500 à 1000 ft
800 à 1500m
200 à 500 ft
< 800m
< 200 ft
Symboles :   Orages  Brouillard  Fortes neiges  Fortes précipitations  Vent > 20 kt






- Altitude de l'aérodrome : 1289 ft
- Code IATA : HON


KHON - Huron Regional

DERNIER METAR :
  • 191255Z AUTO 29008KT 10SM CLR M01/M02 A2984 RMK AO2 SLP114 T10061022

METARs EXPIRÉS :
  • 191155Z AUTO 29007KT 10SM CLR M01/M02 A2983 RMK AO2 SLP111 T10061022 10017 21006 53013
  • 191055Z AUTO 31008KT 10SM CLR 01/M02 A2981 RMK AO2 SLP103 T00061017

TAF KHON
Valide du 19 à 12h jusqu'au 20 à 12h UTC


191122Z 1912/2012 30008KT P6SM BKN250
FM191500 33006KT P6SM FEW250
FM192000 VRB03KT P6SM SKC
FM200000 11005KT P6SM SCT200
FM200400 12008KT P6SM BKN080
FM200900 14011G19KT P6SM BKN150



MET'MAP, la Météo Aéronautique d'un coup d'oeil ! - Copyright ORBIFLY Décembre 2007 - Disclaimer

ORBIFLY MET'MAP TEAM :

Programmation & Développement : Alexandra Zaïnal
Conception & Développement : Baudouin d'Aumeries
Co-Programmation & Développement : Marc-Olivier Méhu
Soutien technique & logistique : Manuel Goepfert

Contact : metmap@orbifly.com




SOURCES & CREDITS :

   NOAA       Earth
Advisory